Aeroporto :
LOGIN :

Iscrizione | Disclaimer

   EN    FR    IT 

 










Sommario :    VFR   VFR Marginale   IFR   IFR Intensivo   IFR Molto Intensivo
Visibilità : 
Base nubi : 
>= 8 km
>= 3000ft
5 / 8 km
1000 / 3000 ft
1500m / 5 km
500 / 1000 ft
800 / 1500m
200 / 500 ft
< 800m
< 200 ft
Simboli :   Temporali  Nebbia  Neve Forte  Precipitazioni Forti  Vento > 20 kt
SIGMETs :   Varie  Temporali  Ghiacco  Turbolenza  Onda orograficha  Ceneri Vulcaniche






- Altitudine del aeroporto : 13 ft
- Codice IATA : OST


EBOS - Oostend bruges Int.

ULTIMO METAR :
  • 021150Z 21011KT 170V230 CAVOK 22/09 Q1020 BECMG 31012KT

METARs OBSOLETI :
  • 021120Z 21011KT 190V250 9999 SCT048 21/09 Q1020 BECMG 31012KT
  • 021050Z 20012KT 180V240 9999 SCT048 21/08 Q1020 BECMG 30012KT
  • 021020Z 21011KT 170V230 9999 FEW038 21/08 Q1021 BECMG 30012KT
  • 020950Z 20012KT 9999 FEW030 21/08 Q1021 BECMG 30012KT
  • 020920Z 19009KT 9999 FEW030 21/10 Q1021 NOSIG
  • 020850Z 17009KT 140V210 CAVOK 20/10 Q1021 NOSIG

TAF TAF EBOS
Valido dal 02 a 12 ore il 03 a 18 ore UTC


021100Z 0212/0318 20012KT CAVOK
BECMG 0212/0213 30012KT
BECMG 0218/0220 20007KT



MetMap, La meteo Aeronautica in un colpo d'occhio ! - Copyright ORBIFLY Dicembre 2007 - Disclaimer

ORBIFLY MET'MAP TEAM :

Programmazione e sviluppo : Alexandra Zaïnal
Concezione : Baudouin d'Aumeries
Supporto tecnico e logistico : Manuel Goepfert
Aiuto : Marc-Olivier Méhu
Aiuto per la traduzione : Arnaldo La Scala




FONTI E CREDITI :

   NOAA